createdAt,value
2023-04-02T00:01:01.618Z,9.01
2023-04-02T00:05:20.388Z,9.02
2023-04-02T00:09:27.768Z,9.02
2023-04-02T00:13:32.048Z,9.05
2023-04-02T00:17:33.713Z,9.05
2023-04-02T00:21:38.869Z,9.06
2023-04-02T00:25:45.822Z,9.04
2023-04-02T00:29:53.207Z,9.01
2023-04-02T00:33:56.078Z,8.99
2023-04-02T00:37:57.750Z,8.95
2023-04-02T00:42:05.749Z,8.94
2023-04-02T00:46:19.476Z,8.93
2023-04-02T00:50:30.658Z,8.93
2023-04-02T00:54:39.115Z,8.91
2023-04-02T00:58:40.994Z,8.90
2023-04-02T01:02:43.071Z,8.90
2023-04-02T01:06:46.144Z,8.88
2023-04-02T01:11:04.556Z,8.91
2023-04-02T01:15:21.928Z,8.93
2023-04-02T01:20:01.155Z,8.90
2023-04-02T01:24:14.718Z,8.93
2023-04-02T01:28:19.863Z,8.96
2023-04-02T01:32:23.468Z,8.98
2023-04-02T01:36:41.477Z,8.99
2023-04-02T01:40:53.688Z,9.01
2023-04-02T01:45:04.458Z,9.02
2023-04-02T01:49:19.209Z,9.00
2023-04-02T01:53:24.570Z,9.02
2023-04-02T01:57:28.165Z,9.04
2023-04-02T02:01:52.104Z,9.02
2023-04-02T02:05:54.574Z,8.99
2023-04-02T02:09:58.574Z,8.98
2023-04-02T02:14:05.651Z,8.99
2023-04-02T02:18:11.520Z,9.01
2023-04-02T02:22:27.594Z,9.03
2023-04-02T02:26:30.299Z,9.00
2023-04-02T02:30:38.578Z,8.97
2023-04-02T02:34:49.482Z,8.97
2023-04-02T02:38:54.781Z,8.97
2023-04-02T02:43:06.470Z,8.98
2023-04-02T02:47:20.041Z,8.98
2023-04-02T02:51:27.281Z,8.92
2023-04-02T02:55:37.085Z,8.94
2023-04-02T02:59:46.813Z,8.93
2023-04-02T03:03:49.567Z,8.90
2023-04-02T03:07:53.622Z,8.90
2023-04-02T03:12:08.858Z,8.89
2023-04-02T03:16:23.525Z,8.87
2023-04-02T03:20:40.641Z,8.87
2023-04-02T03:24:57.774Z,8.89
2023-04-02T03:29:06.337Z,8.92
2023-04-02T03:33:29.184Z,8.94
2023-04-02T03:37:47.230Z,8.91
2023-04-02T03:42:05.600Z,8.94
2023-04-02T03:46:24.767Z,8.96
2023-04-02T03:50:41.472Z,8.93
2023-04-02T03:54:53.303Z,8.91
2023-04-02T03:59:11.422Z,8.93
2023-04-02T04:03:17.079Z,8.90
2023-04-02T04:07:32.730Z,8.85
2023-04-02T04:11:38.218Z,8.81
2023-04-02T04:15:46.246Z,8.84
2023-04-02T04:19:57.970Z,8.80
2023-04-02T04:24:08.034Z,8.81
2023-04-02T04:28:22.293Z,8.82
2023-04-02T04:32:35.626Z,8.79
2023-04-02T04:36:54.652Z,8.79
2023-04-02T04:41:12.816Z,8.75
2023-04-02T04:45:37.072Z,8.73
2023-04-02T04:49:49.564Z,8.75
2023-04-02T04:53:55.305Z,8.77
2023-04-02T04:58:23.293Z,8.78
2023-04-02T05:02:38.544Z,8.81
2023-04-02T05:06:45.748Z,8.82
2023-04-02T05:11:11.708Z,8.86
2023-04-02T05:15:35.690Z,8.89
2023-04-02T05:19:59.287Z,8.93
2023-04-02T05:24:29.852Z,8.96
2023-04-02T05:28:57.664Z,8.98
2023-04-02T05:33:21.756Z,9.03
2023-04-02T05:37:29.368Z,9.07
2023-04-02T05:41:43.278Z,9.16
2023-04-02T05:45:52.619Z,9.22
2023-04-02T05:50:07.377Z,9.32
2023-04-02T05:54:24.229Z,9.45
2023-04-02T05:58:45.747Z,9.55
2023-04-02T06:03:07.669Z,9.67
2023-04-02T06:07:15.286Z,9.76
2023-04-02T06:11:42.278Z,9.86
2023-04-02T06:15:48.630Z,9.98
2023-04-02T06:20:06.116Z,10.11
2023-04-02T06:24:12.328Z,10.18
2023-04-02T06:28:20.257Z,10.27
2023-04-02T06:32:27.396Z,10.35
2023-04-02T06:36:30.392Z,10.43
2023-04-02T06:40:42.589Z,10.50
2023-04-02T06:44:56.145Z,10.54
2023-04-02T06:49:41.232Z,10.57
2023-04-02T06:53:47.376Z,10.65
2023-04-02T06:57:51.313Z,10.73
2023-04-02T07:01:59.101Z,10.73
2023-04-02T07:06:03.019Z,10.75
2023-04-02T07:10:09.366Z,10.73
2023-04-02T07:14:13.275Z,10.80
2023-04-02T07:18:32.437Z,10.90
2023-04-02T07:22:37.094Z,10.97
2023-04-02T07:26:39.139Z,11.12
2023-04-02T07:30:41.419Z,11.17
2023-04-02T07:34:43.413Z,11.18
2023-04-02T07:38:45.330Z,11.21
2023-04-02T07:42:47.165Z,11.33
2023-04-02T07:46:49.229Z,11.39
2023-04-02T07:50:51.466Z,11.47
2023-04-02T07:54:53.128Z,11.55
2023-04-02T07:58:54.980Z,11.61
2023-04-02T08:02:57.281Z,11.71
2023-04-02T08:06:59.233Z,11.74
2023-04-02T08:11:01.082Z,11.74
2023-04-02T08:15:06.398Z,11.66
2023-04-02T08:19:08.811Z,11.17
2023-04-02T08:27:31.063Z,9.96
2023-04-02T08:31:34.956Z,9.69
2023-04-02T08:35:39.629Z,9.58
2023-04-02T08:39:41.669Z,9.34
2023-04-02T08:44:14.185Z,9.08
2023-04-02T08:48:16.914Z,8.83
2023-04-02T08:52:34.143Z,8.51
2023-04-02T08:56:43.607Z,8.46
2023-04-02T09:00:47.211Z,8.39
2023-04-02T09:04:49.256Z,8.34
2023-04-02T09:08:54.271Z,8.31
2023-04-02T09:12:58.725Z,8.18
2023-04-02T09:17:03.021Z,8.15
2023-04-02T09:21:28.486Z,8.20
2023-04-02T09:25:32.384Z,8.32
2023-04-02T09:29:45.287Z,8.37
2023-04-02T09:33:49.225Z,8.53
2023-04-02T09:38:17.341Z,8.70
2023-04-02T09:42:39.340Z,8.93
2023-04-02T09:47:04.126Z,8.86
2023-04-02T09:51:18.511Z,8.87
2023-04-02T09:55:29.188Z,8.82
2023-04-02T09:59:31.049Z,8.92
2023-04-02T10:03:34.555Z,8.87
2023-04-02T10:07:45.231Z,8.60
2023-04-02T10:11:49.489Z,8.73
2023-04-02T10:16:18.606Z,8.57
2023-04-02T10:20:25.932Z,8.49
2023-04-02T10:24:28.903Z,8.52
2023-04-02T10:28:40.410Z,8.35
2023-04-02T10:32:57.893Z,8.33
2023-04-02T10:37:08.659Z,8.41
2023-04-02T10:41:11.657Z,8.55
2023-04-02T10:45:44.340Z,8.71
2023-04-02T10:50:07.473Z,9.17
2023-04-02T10:54:28.116Z,9.27
2023-04-02T10:58:34.592Z,9.57
2023-04-02T11:02:41.520Z,9.75
2023-04-02T11:07:13.863Z,9.85
2023-04-02T11:11:26.599Z,9.80
2023-04-02T11:15:30.474Z,9.72
2023-04-02T11:19:34.601Z,9.49
2023-04-02T11:23:57.234Z,9.40
2023-04-02T11:28:33.476Z,9.70
2023-04-02T11:32:40.704Z,9.59
2023-04-02T11:36:53.060Z,9.34
2023-04-02T11:40:56.039Z,9.10
2023-04-02T11:45:26.627Z,8.88
2023-04-02T11:49:37.123Z,8.72
2023-04-02T11:53:43.351Z,8.71
2023-04-02T11:58:26.849Z,8.63
2023-04-02T12:02:38.773Z,8.63
2023-04-02T12:07:07.307Z,8.54
2023-04-02T12:11:09.250Z,8.49
2023-04-02T12:15:44.760Z,8.46
2023-04-02T12:19:49.180Z,8.44
2023-04-02T12:23:55.167Z,8.46
2023-04-02T12:28:21.322Z,8.41
2023-04-02T12:32:29.543Z,8.32
2023-04-02T12:36:32.902Z,8.16
2023-04-02T12:40:34.792Z,7.90
2023-04-02T12:44:36.697Z,7.93
2023-04-02T12:48:39.622Z,7.87
2023-04-02T12:52:47.132Z,8.06
2023-04-02T12:56:52.332Z,8.10
2023-04-02T13:01:19.277Z,8.22
2023-04-02T13:05:42.758Z,8.25
2023-04-02T13:09:55.688Z,8.20
2023-04-02T13:14:02.828Z,8.07
2023-04-02T13:18:18.751Z,7.86
2023-04-02T13:22:31.987Z,7.70
2023-04-02T13:26:33.878Z,7.61
2023-04-02T13:30:36.006Z,7.53
2023-04-02T13:34:38.228Z,7.43
2023-04-02T13:38:40.992Z,7.54
2023-04-02T13:42:44.492Z,7.57
2023-04-02T13:46:47.495Z,7.23
2023-04-02T13:50:49.142Z,7.52
2023-04-02T13:54:59.280Z,7.86
2023-04-02T13:59:01.741Z,7.94
2023-04-02T14:03:08.359Z,7.94
2023-04-02T14:07:47.075Z,7.91
2023-04-02T14:12:10.962Z,7.81
2023-04-02T14:16:39.140Z,7.61
2023-04-02T14:20:55.957Z,7.39
2023-04-02T14:25:22.132Z,7.41
2023-04-02T14:29:31.732Z,7.34
2023-04-02T14:33:48.721Z,7.39
2023-04-02T14:38:02.297Z,7.35
2023-04-02T14:42:19.336Z,7.12
2023-04-02T14:46:29.304Z,7.12
2023-04-02T14:50:38.152Z,7.15
2023-04-02T14:55:04.424Z,7.00
2023-04-02T14:59:11.688Z,7.15
2023-04-02T15:03:23.375Z,7.07
2023-04-02T15:07:33.534Z,7.04
2023-04-02T15:11:43.478Z,6.89
2023-04-02T15:16:20.208Z,6.83
2023-04-02T15:20:22.268Z,6.94
2023-04-02T15:24:39.168Z,6.74
2023-04-02T15:28:55.487Z,6.59
2023-04-02T15:33:23.437Z,6.54
2023-04-02T15:37:35.727Z,6.59
2023-04-02T15:42:01.752Z,6.53
2023-04-02T15:46:19.888Z,6.34
2023-04-02T15:50:49.804Z,6.33
2023-04-02T15:55:22.690Z,6.30
2023-04-02T15:59:40.145Z,6.31
2023-04-02T16:04:04.265Z,6.23
2023-04-02T16:08:12.250Z,6.15
2023-04-02T16:12:17.553Z,6.22
2023-04-02T16:16:25.372Z,6.44
2023-04-02T16:20:32.909Z,6.39
2023-04-02T16:24:35.036Z,6.37
2023-04-02T16:28:59.808Z,6.29
2023-04-02T16:33:26.234Z,6.33
2023-04-02T16:37:46.762Z,6.38
2023-04-02T16:42:11.566Z,6.40
2023-04-02T16:46:51.768Z,6.44
2023-04-02T16:51:02.476Z,6.44
2023-04-02T16:55:40.149Z,6.33
2023-04-02T16:59:52.000Z,6.20
2023-04-02T17:04:15.509Z,6.12
2023-04-02T17:08:27.442Z,5.96
2023-04-02T17:12:39.729Z,5.90
2023-04-02T17:16:51.539Z,5.85
2023-04-02T17:20:54.105Z,5.69
2023-04-02T17:25:01.733Z,5.72
2023-04-02T17:29:09.418Z,5.69
2023-04-02T17:33:16.529Z,5.68
2023-04-02T17:37:27.774Z,5.62
2023-04-02T17:41:37.256Z,5.51
2023-04-02T17:45:52.443Z,5.51
2023-04-02T17:50:03.921Z,5.45
2023-04-02T17:54:17.632Z,5.52
2023-04-02T17:58:36.610Z,5.48
2023-04-02T18:02:59.398Z,5.46
2023-04-02T18:07:13.234Z,5.41
2023-04-02T18:11:47.642Z,5.34
2023-04-02T18:15:57.109Z,5.31
2023-04-02T18:20:19.434Z,5.30
2023-04-02T18:24:56.608Z,5.28
2023-04-02T18:29:31.128Z,5.25
2023-04-02T18:33:52.427Z,5.19
2023-04-02T18:38:19.049Z,5.19
2023-04-02T18:42:23.672Z,5.16
2023-04-02T18:46:42.873Z,5.09
2023-04-02T18:50:48.107Z,5.14
2023-04-02T18:54:55.573Z,5.20
2023-04-02T18:59:10.070Z,5.23
2023-04-02T19:03:33.060Z,5.22
2023-04-02T19:07:40.789Z,5.20
2023-04-02T19:11:42.539Z,5.14
2023-04-02T19:16:09.226Z,5.14
2023-04-02T19:20:10.986Z,5.18
2023-04-02T19:24:27.464Z,5.23
2023-04-02T19:28:50.099Z,5.22
2023-04-02T19:33:10.296Z,5.11
2023-04-02T19:37:36.812Z,4.99
2023-04-02T19:41:48.709Z,5.02
2023-04-02T19:45:52.646Z,5.07
2023-04-02T19:49:55.720Z,5.01
2023-04-02T19:53:57.468Z,5.01
2023-04-02T19:58:08.979Z,5.06
2023-04-02T20:02:16.134Z,5.03
2023-04-02T20:06:18.459Z,5.03
2023-04-02T20:10:21.928Z,4.97
2023-04-02T20:14:26.159Z,4.93
2023-04-02T20:18:29.698Z,4.87
2023-04-02T20:22:31.401Z,4.89
2023-04-02T20:26:34.567Z,4.89
2023-04-02T20:30:36.518Z,4.87
2023-04-02T20:34:38.772Z,4.83
2023-04-02T20:38:40.703Z,4.80
2023-04-02T20:42:42.335Z,4.79
2023-04-02T20:46:44.174Z,4.80
2023-04-02T20:50:48.233Z,4.86
2023-04-02T20:54:50.698Z,4.91
2023-04-02T20:58:52.701Z,4.93
2023-04-02T21:02:54.469Z,4.92
2023-04-02T21:06:57.626Z,4.89
2023-04-02T21:11:05.842Z,4.93
2023-04-02T21:15:08.229Z,4.95
2023-04-02T21:19:10.704Z,4.96
2023-04-02T21:23:12.365Z,5.02
2023-04-02T21:27:14.029Z,5.01
2023-04-02T21:31:19.149Z,4.99
2023-04-02T21:35:20.913Z,4.91
2023-04-02T21:39:24.351Z,4.64
2023-04-02T21:43:25.987Z,4.48
2023-04-02T21:47:28.780Z,4.38
2023-04-02T21:51:32.956Z,4.43
2023-04-02T21:55:34.846Z,4.42
2023-04-02T21:59:36.615Z,4.44
2023-04-02T22:03:38.565Z,4.46
2023-04-02T22:07:40.257Z,4.42
2023-04-02T22:11:59.291Z,4.41
2023-04-02T22:16:07.510Z,4.39
2023-04-02T22:20:10.830Z,4.35
2023-04-02T22:24:14.950Z,4.30
2023-04-02T22:28:16.583Z,4.21
2023-04-02T22:32:18.271Z,4.12
2023-04-02T22:36:22.635Z,4.03
2023-04-02T22:40:24.656Z,3.97
2023-04-02T22:44:26.555Z,3.92
2023-04-02T22:48:28.318Z,3.87
2023-04-02T22:52:30.090Z,3.84
2023-04-02T22:56:32.993Z,3.82
2023-04-02T23:00:35.090Z,3.74
2023-04-02T23:04:37.248Z,3.67
2023-04-02T23:08:40.033Z,3.52
2023-04-02T23:12:41.708Z,3.33
2023-04-02T23:16:43.362Z,3.20
2023-04-02T23:20:45.063Z,3.09
2023-04-02T23:24:47.208Z,3.02
2023-04-02T23:28:50.345Z,2.95
2023-04-02T23:32:52.082Z,2.88
2023-04-02T23:36:53.834Z,2.82
2023-04-02T23:40:55.621Z,2.79
2023-04-02T23:44:57.266Z,2.78
2023-04-02T23:49:00.039Z,2.73
2023-04-02T23:53:01.714Z,2.65
2023-04-02T23:57:03.400Z,2.58
